createdAt,value
2018-05-13T00:01:58.472Z,91974.20
2018-05-13T00:04:30.917Z,91968.20
2018-05-13T00:07:03.389Z,91965.98
2018-05-13T00:09:35.629Z,91964.77
2018-05-13T00:12:08.159Z,91965.72
2018-05-13T00:14:40.603Z,91967.27
2018-05-13T00:17:12.869Z,91960.45
2018-05-13T00:19:45.262Z,91947.99
2018-05-13T00:22:17.671Z,91949.83
2018-05-13T00:24:50.131Z,91946.23
2018-05-13T00:27:22.803Z,91938.34
2018-05-13T00:29:55.379Z,91943.46
2018-05-13T00:32:27.643Z,91949.92
2018-05-13T00:35:00.084Z,91939.33
2018-05-13T00:37:32.564Z,91936.00
2018-05-13T00:40:04.867Z,91938.89
2018-05-13T00:42:37.293Z,91934.11
2018-05-13T00:45:09.737Z,91929.97
2018-05-13T00:47:42.072Z,91924.47
2018-05-13T00:50:14.507Z,91914.23
2018-05-13T00:52:46.965Z,91914.69
2018-05-13T00:55:19.409Z,91913.56
2018-05-13T00:57:51.789Z,91925.70
2018-05-13T01:00:24.256Z,91925.59
2018-05-13T01:02:56.790Z,91925.59
2018-05-13T01:05:29.160Z,91922.70
2018-05-13T01:08:01.475Z,91920.98
2018-05-13T01:10:33.720Z,91923.22
2018-05-13T01:13:06.067Z,91930.41
2018-05-13T01:15:38.409Z,91929.73
2018-05-13T01:18:10.880Z,91927.11
2018-05-13T01:20:43.285Z,91927.39
2018-05-13T01:23:15.750Z,91929.56
2018-05-13T01:25:48.332Z,91923.61
2018-05-13T01:28:20.790Z,91921.80
2018-05-13T01:30:58.800Z,91917.22
2018-05-13T01:33:31.221Z,91921.33
2018-05-13T01:36:03.464Z,91916.38
2018-05-13T01:38:35.750Z,91919.94
2018-05-13T01:41:08.196Z,91924.16
2018-05-13T01:43:40.731Z,91924.23
2018-05-13T01:46:12.955Z,91924.05
2018-05-13T01:48:45.336Z,91925.62
2018-05-13T01:51:17.852Z,91926.30
2018-05-13T01:53:50.196Z,91924.38
2018-05-13T01:56:22.584Z,91924.17
2018-05-13T01:58:54.980Z,91919.29
2018-05-13T02:01:27.227Z,91914.92
2018-05-13T02:03:59.551Z,91919.48
2018-05-13T02:06:32.075Z,91917.55
2018-05-13T02:09:04.624Z,91916.16
2018-05-13T02:11:37.085Z,91908.65
2018-05-13T02:14:09.673Z,91911.08
2018-05-13T02:16:42.183Z,91910.64
2018-05-13T02:19:14.655Z,91914.66
2018-05-13T02:21:47.107Z,91917.06
2018-05-13T02:24:19.597Z,91919.33
2018-05-13T02:26:51.831Z,91913.28
2018-05-13T02:29:24.256Z,91911.20
2018-05-13T02:31:56.651Z,91907.77
2018-05-13T02:34:29.133Z,91914.58
2018-05-13T02:37:01.567Z,91911.81
2018-05-13T02:39:34.135Z,91911.03
2018-05-13T02:42:06.555Z,91909.42
2018-05-13T02:44:39.147Z,91914.66
2018-05-13T02:47:11.461Z,91912.22
2018-05-13T02:49:43.939Z,91914.66
2018-05-13T02:52:16.332Z,91905.63
2018-05-13T02:54:48.767Z,91905.14
2018-05-13T02:57:20.980Z,91901.43
2018-05-13T02:59:53.680Z,91904.21
2018-05-13T03:02:25.988Z,91908.63
2018-05-13T03:04:58.466Z,91906.56
2018-05-13T03:07:30.959Z,91904.65
2018-05-13T03:10:03.740Z,91908.11
2018-05-13T03:12:36.136Z,91903.76
2018-05-13T03:15:08.471Z,91904.55
2018-05-13T03:17:40.903Z,91909.23
2018-05-13T03:20:13.388Z,91902.76
2018-05-13T03:22:45.700Z,91906.02
2018-05-13T03:25:18.058Z,91907.41
2018-05-13T03:27:50.544Z,91912.32
2018-05-13T03:30:23.255Z,91910.62
2018-05-13T03:32:55.718Z,91915.59
2018-05-13T03:35:28.313Z,91914.05
2018-05-13T03:38:00.755Z,91913.25
2018-05-13T03:40:33.155Z,91921.28
2018-05-13T03:43:05.383Z,91918.05
2018-05-13T03:45:37.968Z,91921.89
2018-05-13T03:48:10.356Z,91917.58
2018-05-13T03:50:42.769Z,91915.08
2018-05-13T03:53:15.049Z,91920.25
2018-05-13T03:55:47.348Z,91921.73
2018-05-13T03:58:19.848Z,91915.25
2018-05-13T04:00:52.403Z,91919.50
2018-05-13T04:03:24.902Z,91925.91
2018-05-13T04:05:57.284Z,91920.00
2018-05-13T04:08:50.275Z,91923.55
2018-05-13T04:11:34.639Z,91923.93
2018-05-13T04:14:18.991Z,91921.08
2018-05-13T04:16:51.404Z,91928.02
2018-05-13T04:19:23.809Z,91923.65
2018-05-13T04:21:56.385Z,91920.25
2018-05-13T04:24:28.853Z,91925.31
2018-05-13T04:27:01.365Z,91930.84
2018-05-13T04:29:33.767Z,91932.09
2018-05-13T04:32:06.254Z,91927.63
2018-05-13T04:34:38.655Z,91927.69
2018-05-13T04:37:10.902Z,91927.72
2018-05-13T04:39:43.298Z,91927.32
2018-05-13T04:42:15.660Z,91928.76
2018-05-13T04:44:48.172Z,91924.48
2018-05-13T04:47:20.587Z,91918.66
2018-05-13T04:49:52.912Z,91918.39
2018-05-13T04:52:25.264Z,91917.22
2018-05-13T04:54:57.596Z,91921.45
2018-05-13T04:57:29.976Z,91918.56
2018-05-13T05:00:02.557Z,91914.85
2018-05-13T05:02:35.092Z,91917.02
2018-05-13T05:05:07.328Z,91919.10
2018-05-13T05:07:39.686Z,91917.75
2018-05-13T05:10:11.927Z,91923.70
2018-05-13T05:12:44.335Z,91920.87
2018-05-13T05:15:16.681Z,91923.35
2018-05-13T05:17:49.106Z,91925.00
2018-05-13T05:20:21.588Z,91928.92
2018-05-13T05:22:54.093Z,91926.77
2018-05-13T05:25:26.584Z,91923.72
2018-05-13T05:27:58.936Z,91929.09
2018-05-13T05:30:31.242Z,91929.14
2018-05-13T05:33:04.000Z,91929.96
2018-05-13T05:35:36.387Z,91931.47
2018-05-13T05:38:08.679Z,91938.02
2018-05-13T05:40:41.186Z,91933.94
2018-05-13T05:43:13.600Z,91941.24
2018-05-13T05:45:46.071Z,91937.97
2018-05-13T05:48:18.608Z,91944.57
2018-05-13T05:53:47.043Z,91945.03
2018-05-13T05:56:19.447Z,91935.14
2018-05-13T05:58:51.868Z,91939.67
2018-05-13T06:01:24.279Z,91940.16
2018-05-13T06:03:56.875Z,91941.37
2018-05-13T06:06:29.374Z,91937.53
2018-05-13T06:09:01.838Z,91938.18
2018-05-13T06:11:34.363Z,91941.17
2018-05-13T06:14:06.700Z,91939.41
2018-05-13T06:16:38.977Z,91935.73
2018-05-13T06:19:11.372Z,91931.38
2018-05-13T06:21:43.802Z,91928.47
2018-05-13T06:24:16.298Z,91926.52
2018-05-13T06:26:48.612Z,91917.36
2018-05-13T06:29:20.965Z,91920.52
2018-05-13T06:31:53.489Z,91925.41
2018-05-13T06:34:25.840Z,91915.44
2018-05-13T06:36:59.292Z,91915.03
2018-05-13T06:39:31.758Z,91913.53
2018-05-13T06:42:04.172Z,91911.59
2018-05-13T06:44:36.625Z,91914.58
2018-05-13T06:47:09.100Z,91911.79
2018-05-13T06:49:41.648Z,91907.19
2018-05-13T06:52:13.948Z,91897.63
2018-05-13T06:54:46.235Z,91896.14
2018-05-13T06:57:18.738Z,91894.52
2018-05-13T06:59:51.183Z,91894.28
2018-05-13T07:02:23.608Z,91888.58
2018-05-13T07:04:55.899Z,91884.70
2018-05-13T07:07:28.295Z,91894.78
2018-05-13T07:10:00.649Z,91888.32
2018-05-13T07:12:33.149Z,91874.45
2018-05-13T07:15:05.433Z,91872.59
2018-05-13T07:17:37.925Z,91874.22
2018-05-13T07:20:12.160Z,91873.83
2018-05-13T07:22:44.719Z,91873.63
2018-05-13T07:25:17.214Z,91864.47
2018-05-13T07:27:49.471Z,91858.40
2018-05-13T07:30:21.876Z,91862.80
2018-05-13T07:32:54.332Z,91861.67
2018-05-13T07:35:26.809Z,91855.30
2018-05-13T07:37:59.296Z,91857.97
2018-05-13T07:40:31.759Z,91852.01
2018-05-13T07:43:04.236Z,91854.23
2018-05-13T07:45:36.726Z,91849.23
2018-05-13T07:48:08.946Z,91842.29
2018-05-13T07:50:41.467Z,91840.62
2018-05-13T07:53:13.711Z,91838.77
2018-05-13T07:55:45.967Z,91832.24
2018-05-13T07:58:18.410Z,91832.98
2018-05-13T08:00:50.755Z,91829.31
2018-05-13T08:03:23.263Z,91831.91
2018-05-13T08:05:55.744Z,91822.73
2018-05-13T08:08:28.834Z,91824.67
2018-05-13T08:11:01.476Z,91826.80
2018-05-13T08:13:34.001Z,91827.14
2018-05-13T08:16:06.410Z,91826.66
2018-05-13T08:18:38.881Z,91825.25
2018-05-13T08:21:11.450Z,91819.34
2018-05-13T08:23:43.960Z,91811.91
2018-05-13T08:26:16.459Z,91809.75
2018-05-13T08:28:48.846Z,91804.83
2018-05-13T08:31:21.246Z,91813.27
2018-05-13T08:33:53.653Z,91803.07
2018-05-13T08:36:26.037Z,91806.09
2018-05-13T08:38:58.537Z,91804.32
2018-05-13T08:41:31.044Z,91801.36
2018-05-13T08:44:03.354Z,91804.41
2018-05-13T08:46:35.716Z,91794.42
2018-05-13T08:49:08.140Z,91788.30
2018-05-13T08:51:40.763Z,91776.41
2018-05-13T08:54:13.137Z,91780.74
2018-05-13T08:56:45.493Z,91785.73
2018-05-13T08:59:17.924Z,91779.84
2018-05-13T09:01:50.373Z,91764.25
2018-05-13T09:04:22.772Z,91773.44
2018-05-13T09:06:55.343Z,91770.22
2018-05-13T09:09:27.751Z,91769.94
2018-05-13T09:12:00.041Z,91766.66
2018-05-13T09:14:32.414Z,91765.02
2018-05-13T09:17:04.840Z,91755.78
2018-05-13T09:19:37.215Z,91752.13
2018-05-13T09:22:10.712Z,91756.11
2018-05-13T09:24:43.166Z,91754.91
2018-05-13T09:27:15.693Z,91748.06
2018-05-13T09:29:48.977Z,91743.88
2018-05-13T09:32:21.429Z,91747.80
2018-05-13T09:34:53.848Z,91747.00
2018-05-13T09:37:26.331Z,91744.61
2018-05-13T09:39:58.606Z,91747.05
2018-05-13T09:42:31.037Z,91736.27
2018-05-13T09:45:03.546Z,91736.31
2018-05-13T09:47:36.035Z,91735.20
2018-05-13T09:50:08.503Z,91727.83
2018-05-13T09:52:40.847Z,91726.27
2018-05-13T09:55:13.080Z,91727.45
2018-05-13T09:57:45.524Z,91722.75
2018-05-13T10:00:17.847Z,91720.23
2018-05-13T10:02:50.334Z,91720.95
2018-05-13T10:05:22.817Z,91713.75
2018-05-13T10:07:55.541Z,91714.31
2018-05-13T10:10:28.023Z,91706.09
2018-05-13T10:13:00.517Z,91696.02
2018-05-13T10:15:32.962Z,91696.06
2018-05-13T10:18:05.351Z,91694.47
2018-05-13T10:20:37.797Z,91688.00
2018-05-13T10:23:11.995Z,91685.98
2018-05-13T10:25:44.415Z,91689.20
2018-05-13T10:28:16.654Z,91686.37
2018-05-13T10:30:48.982Z,91682.88
2018-05-13T10:33:21.554Z,91676.20
2018-05-13T10:35:53.948Z,91680.22
2018-05-13T10:38:26.342Z,91672.50
2018-05-13T10:41:00.704Z,91668.37
2018-05-13T10:43:33.048Z,91659.22
2018-05-13T10:46:05.503Z,91660.50
2018-05-13T10:48:37.797Z,91656.23
2018-05-13T10:51:10.267Z,91660.05
2018-05-13T10:53:43.241Z,91661.85
2018-05-13T10:56:15.661Z,91657.84
2018-05-13T10:58:48.035Z,91658.42
2018-05-13T11:01:20.488Z,91662.80
2018-05-13T11:03:52.758Z,91658.75
2018-05-13T11:06:25.347Z,91655.29
2018-05-13T11:08:57.844Z,91657.73
2018-05-13T11:11:30.184Z,91651.59
2018-05-13T11:14:02.732Z,91659.61
2018-05-13T11:16:35.157Z,91655.56
2018-05-13T11:19:07.740Z,91654.25
2018-05-13T11:21:40.048Z,91661.75
2018-05-13T11:24:12.963Z,91666.76
2018-05-13T11:26:45.339Z,91668.03
2018-05-13T11:29:17.818Z,91681.73
2018-05-13T11:31:50.017Z,91685.52
2018-05-13T11:34:22.335Z,91690.28
2018-05-13T11:36:54.833Z,91690.70
2018-05-13T11:39:27.240Z,91701.81
2018-05-13T11:41:59.780Z,91698.23
2018-05-13T11:44:32.317Z,91711.86
2018-05-13T11:46:58.623Z,91724.34
2018-05-13T11:49:24.929Z,91738.34
2018-05-13T11:51:51.278Z,91739.81
2018-05-13T11:54:17.601Z,91752.02
2018-05-13T11:56:43.943Z,91760.73
2018-05-13T11:59:10.391Z,91766.27
2018-05-13T12:01:36.706Z,91770.39
2018-05-13T12:04:03.120Z,91771.06
2018-05-13T12:06:29.504Z,91769.91
2018-05-13T12:08:55.854Z,91769.77
2018-05-13T12:11:27.213Z,91762.19
2018-05-13T12:13:53.661Z,91753.67
2018-05-13T12:16:20.001Z,91748.88
2018-05-13T12:18:46.318Z,91744.77
2018-05-13T12:21:12.810Z,91731.89
2018-05-13T12:23:39.218Z,91720.12
2018-05-13T12:26:05.511Z,91720.08
2018-05-13T12:28:31.868Z,91713.47
2018-05-13T12:30:58.235Z,91706.16
2018-05-13T12:33:24.624Z,91707.25
2018-05-13T12:35:50.989Z,91710.34
2018-05-13T12:38:17.445Z,91714.47
2018-05-13T12:40:43.786Z,91715.07
2018-05-13T12:43:16.822Z,91718.06
2018-05-13T12:45:43.129Z,91729.73
2018-05-13T12:48:09.461Z,91732.95
2018-05-13T12:50:35.831Z,91733.64
2018-05-13T12:53:02.140Z,91738.30
2018-05-13T12:55:28.486Z,91733.77
2018-05-13T12:57:54.851Z,91726.58
2018-05-13T13:00:21.170Z,91719.77
2018-05-13T13:02:47.486Z,91722.93
2018-05-13T13:05:13.906Z,91716.52
2018-05-13T13:07:40.255Z,91715.98
2018-05-13T13:10:06.555Z,91720.30
2018-05-13T13:12:32.908Z,91720.44
2018-05-13T13:14:59.209Z,91725.34
2018-05-13T13:17:25.526Z,91722.55
2018-05-13T13:19:51.879Z,91723.23
2018-05-13T13:22:18.230Z,91728.81
2018-05-13T13:24:45.144Z,91720.52
2018-05-13T13:27:11.755Z,91714.49
2018-05-13T13:29:38.094Z,91714.29
2018-05-13T13:32:04.403Z,91716.48
2018-05-13T13:34:30.755Z,91710.63
2018-05-13T13:36:57.065Z,91711.44
2018-05-13T13:39:23.376Z,91708.56
2018-05-13T13:41:49.803Z,91708.31
2018-05-13T13:44:16.220Z,91708.87
2018-05-13T13:46:42.555Z,91709.14
2018-05-13T13:49:08.945Z,91705.62
2018-05-13T13:51:35.295Z,91710.59
2018-05-13T13:54:01.616Z,91710.76
2018-05-13T13:56:28.020Z,91704.12
2018-05-13T13:58:54.332Z,91703.39
2018-05-13T14:01:20.624Z,91702.89
2018-05-13T14:03:46.989Z,91698.75
2018-05-13T14:06:13.289Z,91695.05
2018-05-13T14:08:39.596Z,91694.61
2018-05-13T14:11:06.317Z,91699.67
2018-05-13T14:13:32.630Z,91692.20
2018-05-13T14:15:58.958Z,91691.66
2018-05-13T14:18:25.315Z,91689.45
2018-05-13T14:20:51.607Z,91695.30
2018-05-13T14:23:17.922Z,91687.98
2018-05-13T14:25:44.299Z,91693.87
2018-05-13T14:28:10.612Z,91698.11
2018-05-13T14:30:36.927Z,91696.33
2018-05-13T14:33:04.304Z,91694.31
2018-05-13T14:35:30.564Z,91699.53
2018-05-13T14:37:56.964Z,91704.28
2018-05-13T14:40:23.250Z,91704.48
2018-05-13T14:42:49.539Z,91709.42
2018-05-13T14:45:16.072Z,91700.45
2018-05-13T14:47:42.346Z,91700.73
2018-05-13T14:50:08.672Z,91699.05
2018-05-13T14:52:34.982Z,91702.64
2018-05-13T14:55:01.420Z,91706.89
2018-05-13T14:57:27.752Z,91709.58
2018-05-13T14:59:54.070Z,91710.45
2018-05-13T15:02:20.424Z,91710.76
2018-05-13T15:04:46.774Z,91714.78
2018-05-13T15:07:25.040Z,91723.45
2018-05-13T15:09:52.465Z,91720.30
2018-05-13T15:12:18.763Z,91723.98
2018-05-13T15:14:45.220Z,91722.17
2018-05-13T15:17:11.564Z,91725.78
2018-05-13T15:19:37.872Z,91726.52
2018-05-13T15:22:04.314Z,91735.26
2018-05-13T15:27:11.836Z,91770.87
2018-05-13T15:29:38.166Z,91775.94
2018-05-13T15:32:04.470Z,91779.28
2018-05-13T15:34:30.874Z,91776.69
2018-05-13T15:36:57.197Z,91788.27
2018-05-13T15:39:23.492Z,91796.66
2018-05-13T15:41:49.820Z,91802.27
2018-05-13T15:44:16.180Z,91804.84
2018-05-13T15:46:42.592Z,91797.91
2018-05-13T15:49:09.127Z,91795.24
2018-05-13T15:51:35.351Z,91797.78
2018-05-13T15:54:01.678Z,91794.47
2018-05-13T15:56:28.084Z,91793.05
2018-05-13T15:58:54.396Z,91788.33
2018-05-13T16:01:20.716Z,91790.06
2018-05-13T16:03:47.084Z,91792.33
2018-05-13T16:06:13.432Z,91791.09
2018-05-13T16:08:39.761Z,91784.22
2018-05-13T16:11:06.162Z,91790.89
2018-05-13T16:13:32.487Z,91795.06
2018-05-13T16:15:58.810Z,91795.45
2018-05-13T16:18:25.194Z,91799.47
2018-05-13T16:20:51.516Z,91799.61
2018-05-13T16:23:17.827Z,91807.70
2018-05-13T16:25:44.195Z,91817.44
2018-05-13T16:28:10.545Z,91815.92
2018-05-13T16:30:36.869Z,91812.33
2018-05-13T16:33:03.239Z,91812.52
2018-05-13T16:35:29.549Z,91804.19
2018-05-13T16:37:55.852Z,91797.88
2018-05-13T16:40:25.661Z,91793.55
2018-05-13T16:42:51.993Z,91793.81
2018-05-13T16:45:18.314Z,91802.75
2018-05-13T16:47:47.718Z,91795.72
2018-05-13T16:50:14.035Z,91794.55
2018-05-13T16:52:40.366Z,91799.56
2018-05-13T16:55:06.724Z,91798.10
2018-05-13T16:57:33.054Z,91807.89
2018-05-13T16:59:59.368Z,91803.91
2018-05-13T17:02:25.908Z,91802.31
2018-05-13T17:04:52.189Z,91799.91
2018-05-13T17:07:18.531Z,91805.32
2018-05-13T17:09:44.867Z,91801.63
2018-05-13T17:12:11.168Z,91807.96
2018-05-13T17:14:37.490Z,91807.58
2018-05-13T17:17:03.862Z,91816.94
2018-05-13T17:19:30.185Z,91805.41
2018-05-13T17:21:56.547Z,91805.20
2018-05-13T17:24:22.958Z,91795.72
2018-05-13T17:26:49.272Z,91796.06
2018-05-13T17:29:15.621Z,91802.84
2018-05-13T17:31:41.975Z,91804.67
2018-05-13T17:34:08.298Z,91812.60
2018-05-13T17:36:34.597Z,91804.59
2018-05-13T17:39:00.955Z,91809.61
2018-05-13T17:41:27.291Z,91808.60
2018-05-13T17:43:53.579Z,91803.54
2018-05-13T17:46:20.058Z,91805.73
2018-05-13T17:48:46.455Z,91806.03
2018-05-13T17:51:12.764Z,91798.58
2018-05-13T17:53:39.149Z,91798.13
2018-05-13T17:56:05.500Z,91802.78
2018-05-13T17:58:31.864Z,91811.86
2018-05-13T18:00:58.294Z,91807.63
2018-05-13T18:03:24.681Z,91813.32
2018-05-13T18:05:50.981Z,91807.45
2018-05-13T18:08:17.440Z,91810.27
2018-05-13T18:10:43.728Z,91818.14
2018-05-13T18:13:10.063Z,91814.78
2018-05-13T18:15:36.439Z,91815.08
2018-05-13T18:18:02.745Z,91799.65
2018-05-13T18:20:29.071Z,91809.02
2018-05-13T18:22:55.447Z,91808.31
2018-05-13T18:25:21.776Z,91808.45
2018-05-13T18:27:48.095Z,91808.61
2018-05-13T18:30:14.504Z,91814.56
2018-05-13T18:32:40.852Z,91821.62
2018-05-13T18:35:07.176Z,91823.75
2018-05-13T18:37:33.546Z,91827.70
2018-05-13T18:39:59.874Z,91825.53
2018-05-13T18:42:26.192Z,91835.96
2018-05-13T18:44:52.567Z,91842.17
2018-05-13T18:47:18.872Z,91834.98
2018-05-13T18:49:45.280Z,91844.42
2018-05-13T18:52:11.659Z,91841.62
2018-05-13T18:54:38.047Z,91847.80
2018-05-13T18:57:04.271Z,91847.68
2018-05-13T18:59:30.614Z,91846.22
2018-05-13T19:01:56.941Z,91850.33
2018-05-13T19:04:23.306Z,91850.41
2018-05-13T19:06:49.658Z,91853.08
2018-05-13T19:09:15.983Z,91853.91
2018-05-13T19:11:42.400Z,91854.54
2018-05-13T19:14:08.817Z,91856.06
2018-05-13T19:16:35.152Z,91858.80
2018-05-13T19:19:01.486Z,91858.48
2018-05-13T19:21:27.855Z,91857.78
2018-05-13T19:23:54.176Z,91857.69
2018-05-13T19:26:20.505Z,91859.08
2018-05-13T19:28:46.920Z,91853.61
2018-05-13T19:31:13.230Z,91849.52
2018-05-13T19:33:39.522Z,91848.56
2018-05-13T19:36:05.924Z,91849.44
2018-05-13T19:38:32.292Z,91850.03
2018-05-13T19:40:58.589Z,91851.03
2018-05-13T19:43:24.998Z,91844.34
2018-05-13T19:45:51.293Z,91846.86
2018-05-13T19:48:17.608Z,91838.91
2018-05-13T19:50:44.068Z,91834.27
2018-05-13T19:53:10.398Z,91833.87
2018-05-13T19:55:36.731Z,91828.75
2018-05-13T19:58:03.759Z,91826.39
2018-05-13T20:00:30.723Z,91818.17
2018-05-13T20:02:57.127Z,91817.53
2018-05-13T20:05:23.639Z,91815.70
2018-05-13T20:07:49.976Z,91815.07
2018-05-13T20:10:22.479Z,91816.64
2018-05-13T20:12:57.076Z,91818.53
2018-05-13T20:15:29.829Z,91819.77
2018-05-13T20:18:02.995Z,91820.95
2018-05-13T20:20:35.308Z,91818.31
2018-05-13T20:23:19.991Z,91814.37
2018-05-13T20:25:52.466Z,91811.97
2018-05-13T20:28:25.864Z,91815.26
2018-05-13T20:30:59.749Z,91811.92
2018-05-13T20:33:32.160Z,91815.16
2018-05-13T20:36:04.693Z,91810.45
2018-05-13T20:38:37.036Z,91819.39
2018-05-13T20:41:10.057Z,91817.11
2018-05-13T20:43:42.408Z,91822.09
2018-05-13T20:46:14.694Z,91820.03
2018-05-13T20:48:50.289Z,91823.62
2018-05-13T20:51:22.883Z,91822.14
2018-05-13T20:53:55.429Z,91825.50
2018-05-13T20:56:27.989Z,91816.80
2018-05-13T21:01:38.500Z,91815.22
2018-05-13T21:04:10.906Z,91820.92
2018-05-13T21:06:43.371Z,91819.40
2018-05-13T21:09:15.921Z,91819.33
2018-05-13T21:11:48.418Z,91816.75
2018-05-13T21:14:20.780Z,91815.87
2018-05-13T21:16:53.151Z,91809.34
2018-05-13T21:19:25.407Z,91811.69
2018-05-13T21:21:58.032Z,91813.27
2018-05-13T21:24:30.498Z,91809.63
2018-05-13T21:27:03.035Z,91812.04
2018-05-13T21:29:35.367Z,91812.50
2018-05-13T21:32:07.796Z,91810.27
2018-05-13T21:34:40.265Z,91810.68
2018-05-13T21:37:12.588Z,91811.39
2018-05-13T21:39:44.912Z,91811.75
2018-05-13T21:42:17.436Z,91805.59
2018-05-13T21:44:49.792Z,91807.89
2018-05-13T21:47:22.202Z,91805.65
2018-05-13T21:49:54.474Z,91801.89
2018-05-13T21:52:27.035Z,91800.83
2018-05-13T21:54:59.551Z,91800.66
2018-05-13T21:57:31.913Z,91794.79
2018-05-13T22:00:04.452Z,91792.44
2018-05-13T22:02:36.908Z,91788.50
2018-05-13T22:05:09.392Z,91784.55
2018-05-13T22:07:42.216Z,91788.83
2018-05-13T22:10:14.631Z,91796.47
2018-05-13T22:12:47.048Z,91793.70
2018-05-13T22:15:19.343Z,91795.64
2018-05-13T22:17:51.836Z,91797.52
2018-05-13T22:20:24.327Z,91798.47
2018-05-13T22:22:56.642Z,91797.27
2018-05-13T22:25:29.072Z,91799.93
2018-05-13T22:28:01.410Z,91800.81
2018-05-13T22:30:33.654Z,91800.02
2018-05-13T22:33:06.016Z,91796.97
2018-05-13T22:35:38.428Z,91795.82
2018-05-13T22:38:10.865Z,91794.35
2018-05-13T22:40:43.303Z,91794.23
2018-05-13T22:43:15.626Z,91795.26
2018-05-13T22:45:48.075Z,91791.21
2018-05-13T22:48:20.432Z,91790.77
2018-05-13T22:50:52.707Z,91797.52
2018-05-13T22:53:30.748Z,91794.44
2018-05-13T22:56:03.157Z,91796.77
2018-05-13T23:01:14.784Z,91802.08
2018-05-13T23:03:47.300Z,91803.69
2018-05-13T23:06:19.891Z,91803.31
2018-05-13T23:08:52.501Z,91801.38
2018-05-13T23:11:24.788Z,91805.34
2018-05-13T23:13:57.350Z,91803.66
2018-05-13T23:16:29.648Z,91804.42
2018-05-13T23:19:01.998Z,91800.72
2018-05-13T23:21:34.511Z,91801.84
2018-05-13T23:24:07.012Z,91799.55
2018-05-13T23:26:39.429Z,91800.37
2018-05-13T23:29:11.847Z,91799.89
2018-05-13T23:31:44.128Z,91794.61
2018-05-13T23:34:16.638Z,91788.56
2018-05-13T23:36:49.153Z,91795.13
2018-05-13T23:39:21.741Z,91790.09
2018-05-13T23:41:54.099Z,91786.86
2018-05-13T23:44:26.607Z,91791.80
2018-05-13T23:46:59.031Z,91790.67
2018-05-13T23:49:31.516Z,91783.69
2018-05-13T23:52:03.981Z,91788.39
2018-05-13T23:54:36.507Z,91789.33
2018-05-13T23:57:09.029Z,91788.80
2018-05-13T23:59:41.424Z,91792.31
